createdAt,value
2018-06-02T00:01:16.728Z,94.80
2018-06-02T00:03:45.199Z,95.50
2018-06-02T00:06:12.909Z,95.50
2018-06-02T00:08:40.637Z,95.60
2018-06-02T00:11:09.153Z,96.10
2018-06-02T00:13:37.084Z,96.10
2018-06-02T00:16:05.640Z,95.70
2018-06-02T00:18:33.370Z,95.70
2018-06-02T00:21:01.093Z,95.60
2018-06-02T00:23:29.560Z,95.70
2018-06-02T00:25:57.276Z,95.70
2018-06-02T00:28:25.005Z,95.90
2018-06-02T00:30:53.507Z,95.90
2018-06-02T00:33:21.217Z,95.90
2018-06-02T00:35:48.913Z,96.10
2018-06-02T00:38:17.394Z,95.70
2018-06-02T00:40:45.947Z,95.60
2018-06-02T00:43:13.661Z,95.60
2018-06-02T00:45:41.371Z,95.20
2018-06-02T00:48:09.100Z,95.20
2018-06-02T00:50:36.834Z,95.10
2018-06-02T00:53:05.301Z,95.50
2018-06-02T00:55:32.979Z,95.50
2018-06-02T00:58:01.466Z,95.50
2018-06-02T01:00:29.957Z,96.00
2018-06-02T01:02:57.924Z,95.90
2018-06-02T01:05:25.639Z,95.70
2018-06-02T01:07:53.329Z,95.90
2018-06-02T01:10:21.813Z,95.90
2018-06-02T01:12:50.288Z,95.20
2018-06-02T01:15:18.981Z,95.70
2018-06-02T01:17:47.445Z,95.80
2018-06-02T01:20:15.217Z,95.70
2018-06-02T01:22:43.703Z,96.00
2018-06-02T01:25:11.402Z,96.00
2018-06-02T01:27:39.131Z,95.50
2018-06-02T01:30:07.601Z,95.80
2018-06-02T01:32:35.285Z,95.80
2018-06-02T01:35:04.005Z,96.90
2018-06-02T01:37:31.696Z,96.90
2018-06-02T01:39:59.384Z,96.90
2018-06-02T01:42:27.117Z,97.20
2018-06-02T01:44:54.809Z,96.90
2018-06-02T01:47:23.282Z,97.40
2018-06-02T01:49:50.965Z,97.40
2018-06-02T01:52:18.688Z,97.00
2018-06-02T01:54:46.381Z,97.10
2018-06-02T01:57:14.849Z,97.30
2018-06-02T01:59:42.553Z,97.20
2018-06-02T02:02:10.248Z,97.30
2018-06-02T02:04:37.921Z,97.30
2018-06-02T02:07:05.952Z,97.20
2018-06-02T02:09:33.634Z,97.60
2018-06-02T02:12:01.344Z,97.40
2018-06-02T02:14:29.801Z,97.10
2018-06-02T02:16:57.484Z,97.10
2018-06-02T02:19:25.176Z,96.70
2018-06-02T02:21:52.913Z,96.50
2018-06-02T02:24:21.433Z,96.40
2018-06-02T02:26:49.129Z,96.30
2018-06-02T02:29:16.796Z,96.10
2018-06-02T02:31:44.480Z,97.20
2018-06-02T02:34:12.938Z,97.30
2018-06-02T02:36:40.625Z,97.20
2018-06-02T02:39:09.094Z,97.70
2018-06-02T02:41:36.795Z,97.70
2018-06-02T02:44:04.505Z,97.60
2018-06-02T02:46:32.201Z,97.20
2018-06-02T02:49:00.672Z,97.50
2018-06-02T02:51:28.365Z,97.50
2018-06-02T02:53:56.065Z,97.80
2018-06-02T02:56:23.972Z,97.40
2018-06-02T02:58:52.442Z,96.60
2018-06-02T03:01:20.128Z,96.60
2018-06-02T03:03:48.590Z,96.60
2018-06-02T03:06:16.291Z,96.60
2018-06-02T03:08:43.994Z,96.70
2018-06-02T03:11:12.060Z,97.00
2018-06-02T03:13:39.753Z,96.90
2018-06-02T03:16:08.221Z,97.60
2018-06-02T03:18:35.929Z,97.50
2018-06-02T03:21:03.664Z,97.30
2018-06-02T03:23:32.117Z,97.30
2018-06-02T03:25:59.813Z,97.20
2018-06-02T03:28:28.325Z,97.10
2018-06-02T03:30:56.056Z,97.10
2018-06-02T03:33:24.505Z,96.80
2018-06-02T03:35:52.193Z,96.80
2018-06-02T03:38:20.672Z,98.00
2018-06-02T03:40:48.436Z,98.00
2018-06-02T03:43:16.138Z,97.00
2018-06-02T03:45:43.833Z,97.30
2018-06-02T03:48:11.525Z,97.50
2018-06-02T03:50:39.212Z,98.10
2018-06-02T03:53:06.926Z,98.50
2018-06-02T03:55:34.608Z,97.60
2018-06-02T03:58:02.300Z,97.90
2018-06-02T04:00:30.045Z,97.60
2018-06-02T04:02:58.521Z,97.60
2018-06-02T04:05:27.029Z,97.30
2018-06-02T04:07:55.668Z,97.30
2018-06-02T04:10:23.381Z,97.40
2018-06-02T04:12:51.078Z,97.80
2018-06-02T04:15:19.025Z,97.90
2018-06-02T04:17:46.721Z,97.40
2018-06-02T04:20:15.433Z,97.20
2018-06-02T04:22:43.900Z,98.00
2018-06-02T04:25:11.585Z,98.00
2018-06-02T04:27:40.033Z,97.90
2018-06-02T04:30:07.717Z,97.90
2018-06-02T04:32:35.462Z,98.20
2018-06-02T04:35:03.153Z,98.40
2018-06-02T04:37:31.605Z,97.90
2018-06-02T04:39:59.292Z,97.90
2018-06-02T04:42:27.757Z,97.70
2018-06-02T04:44:55.456Z,97.70
2018-06-02T04:47:23.304Z,97.80
2018-06-02T04:49:51.757Z,97.80
2018-06-02T04:52:19.456Z,97.80
2018-06-02T04:54:47.149Z,97.40
2018-06-02T04:57:14.837Z,97.90
2018-06-02T04:59:43.284Z,96.90
2018-06-02T05:02:10.986Z,96.90
2018-06-02T05:04:38.675Z,96.70
2018-06-02T05:07:07.125Z,96.50
2018-06-02T05:09:34.821Z,96.40
2018-06-02T05:12:03.298Z,95.70
2018-06-02T05:14:31.753Z,95.10
2018-06-02T05:16:59.441Z,95.10
2018-06-02T05:19:28.168Z,94.40
2018-06-02T05:21:55.965Z,94.40
2018-06-02T05:24:23.685Z,94.80
2018-06-02T05:26:51.422Z,95.20
2018-06-02T05:29:19.900Z,94.40
2018-06-02T05:31:47.780Z,94.40
2018-06-02T05:34:16.253Z,93.30
2018-06-02T05:36:44.805Z,93.30
2018-06-02T05:39:12.636Z,93.30
2018-06-02T05:41:40.429Z,93.10
2018-06-02T05:44:08.187Z,93.70
2018-06-02T05:46:35.884Z,93.00
2018-06-02T05:49:03.649Z,92.50
2018-06-02T05:51:31.392Z,92.60
2018-06-02T05:53:59.133Z,93.20
2018-06-02T05:56:26.885Z,92.20
2018-06-02T05:58:54.619Z,92.30
2018-06-02T06:01:23.106Z,92.40
2018-06-02T06:03:51.598Z,91.70
2018-06-02T06:06:19.350Z,91.70
2018-06-02T06:08:47.845Z,91.40
2018-06-02T06:11:15.797Z,91.40
2018-06-02T06:13:44.274Z,90.60
2018-06-02T06:16:12.912Z,91.20
2018-06-02T06:18:40.634Z,91.20
2018-06-02T06:21:08.457Z,91.00
2018-06-02T06:23:36.518Z,91.00
2018-06-02T06:26:04.324Z,90.80
2018-06-02T06:28:32.083Z,90.50
2018-06-02T06:31:00.623Z,89.90
2018-06-02T06:33:28.373Z,89.90
2018-06-02T06:35:56.073Z,90.00
2018-06-02T06:38:23.825Z,90.10
2018-06-02T06:40:52.521Z,89.40
2018-06-02T06:43:20.258Z,89.30
2018-06-02T06:45:47.969Z,88.80
2018-06-02T06:48:16.548Z,88.70
2018-06-02T06:50:44.405Z,88.60
2018-06-02T06:53:12.163Z,87.10
2018-06-02T06:55:39.921Z,89.10
2018-06-02T06:58:07.609Z,87.10
2018-06-02T07:00:35.324Z,87.50
2018-06-02T07:03:03.041Z,87.20
2018-06-02T07:05:31.521Z,86.90
2018-06-02T07:07:59.997Z,87.90
2018-06-02T07:10:27.793Z,87.90
2018-06-02T07:12:55.532Z,89.20
2018-06-02T07:15:23.241Z,88.50
2018-06-02T07:17:51.059Z,87.40
2018-06-02T07:20:18.723Z,87.20
2018-06-02T07:22:47.262Z,87.30
2018-06-02T07:25:15.015Z,87.20
2018-06-02T07:27:42.773Z,88.10
2018-06-02T07:30:11.662Z,86.90
2018-06-02T07:32:39.417Z,87.90
2018-06-02T07:35:07.136Z,87.50
2018-06-02T07:37:34.936Z,86.50
2018-06-02T07:40:02.777Z,87.00
2018-06-02T07:42:31.334Z,89.50
2018-06-02T07:44:59.053Z,89.50
2018-06-02T07:47:26.781Z,84.90
2018-06-02T07:49:54.557Z,85.50
2018-06-02T07:52:22.277Z,84.30
2018-06-02T07:54:50.048Z,85.00
2018-06-02T07:57:17.774Z,85.90
2018-06-02T07:59:45.918Z,84.50
2018-06-02T08:02:13.643Z,82.90
2018-06-02T08:04:41.411Z,83.70
2018-06-02T08:07:09.141Z,80.30
2018-06-02T08:09:36.899Z,81.60
2018-06-02T08:12:05.089Z,83.80
2018-06-02T08:14:32.895Z,81.80
2018-06-02T08:17:00.669Z,79.70
2018-06-02T08:19:28.429Z,80.50
2018-06-02T08:21:58.714Z,80.70
2018-06-02T08:24:26.548Z,80.60
2018-06-02T08:26:54.421Z,80.70
2018-06-02T08:29:22.155Z,80.60
2018-06-02T08:31:50.115Z,80.40
2018-06-02T08:34:17.824Z,81.10
2018-06-02T08:36:45.567Z,79.30
2018-06-02T08:39:14.102Z,81.30
2018-06-02T08:41:41.850Z,81.30
2018-06-02T08:44:09.617Z,81.10
2018-06-02T08:46:37.451Z,78.40
2018-06-02T08:49:05.969Z,76.40
2018-06-02T08:51:33.723Z,76.20
2018-06-02T08:54:01.515Z,73.30
2018-06-02T08:56:29.285Z,74.20
2018-06-02T08:58:56.985Z,75.20
2018-06-02T09:01:25.547Z,73.30
2018-06-02T09:03:53.677Z,73.20
2018-06-02T09:06:21.391Z,75.30
2018-06-02T09:08:49.128Z,74.70
2018-06-02T09:11:18.119Z,70.70
2018-06-02T09:13:45.858Z,70.60
2018-06-02T09:16:13.585Z,73.70
2018-06-02T09:18:42.182Z,71.00
2018-06-02T09:21:11.049Z,71.00
2018-06-02T09:23:38.842Z,71.50
2018-06-02T09:26:06.626Z,70.30
2018-06-02T09:28:34.359Z,68.90
2018-06-02T09:31:02.873Z,70.30
2018-06-02T09:33:30.631Z,70.30
2018-06-02T09:35:58.397Z,70.10
2018-06-02T09:38:26.118Z,71.50
2018-06-02T09:40:54.628Z,68.00
2018-06-02T09:43:22.434Z,67.90
2018-06-02T09:45:50.190Z,68.00
2018-06-02T09:48:17.994Z,70.00
2018-06-02T09:50:46.531Z,67.40
2018-06-02T09:53:14.337Z,67.00
2018-06-02T09:55:42.135Z,65.70
2018-06-02T09:58:09.923Z,68.10
2018-06-02T10:00:37.714Z,65.50
2018-06-02T10:03:05.506Z,66.90
2018-06-02T10:05:33.283Z,65.80
2018-06-02T10:08:01.046Z,65.10
2018-06-02T10:10:28.938Z,64.70
2018-06-02T10:12:56.657Z,65.70
2018-06-02T10:15:24.437Z,65.20
2018-06-02T10:17:52.989Z,67.10
2018-06-02T10:20:20.749Z,67.10
2018-06-02T10:22:48.518Z,64.70
2018-06-02T10:25:17.135Z,64.70
2018-06-02T10:27:45.706Z,64.00
2018-06-02T10:30:13.645Z,63.90
2018-06-02T10:32:41.389Z,63.70
2018-06-02T10:35:09.173Z,61.20
2018-06-02T10:37:36.889Z,63.50
2018-06-02T10:40:05.084Z,61.10
2018-06-02T10:42:32.824Z,62.10
2018-06-02T10:45:01.361Z,61.10
2018-06-02T10:47:29.102Z,61.00
2018-06-02T10:49:57.040Z,63.90
2018-06-02T10:52:25.052Z,59.20
2018-06-02T10:54:52.853Z,56.90
2018-06-02T10:57:20.597Z,60.00
2018-06-02T10:59:48.327Z,57.30
2018-06-02T11:02:16.139Z,59.80
2018-06-02T11:04:43.887Z,58.80
2018-06-02T11:07:11.622Z,57.00
2018-06-02T11:09:39.420Z,56.40
2018-06-02T11:12:07.489Z,56.10
2018-06-02T11:14:35.264Z,57.10
2018-06-02T11:17:03.052Z,57.60
2018-06-02T11:19:31.640Z,57.80
2018-06-02T11:21:59.502Z,57.70
2018-06-02T11:24:27.238Z,58.80
2018-06-02T11:26:55.049Z,63.00
2018-06-02T11:29:23.240Z,63.70
2018-06-02T11:31:52.088Z,62.30
2018-06-02T11:34:20.674Z,61.20
2018-06-02T11:36:49.179Z,53.90
2018-06-02T11:39:16.937Z,53.90
2018-06-02T11:41:44.745Z,53.60
2018-06-02T11:44:12.869Z,55.10
2018-06-02T11:46:40.509Z,55.80
2018-06-02T11:49:08.222Z,56.70
2018-06-02T11:51:36.028Z,58.20
2018-06-02T11:54:03.787Z,57.90
2018-06-02T11:56:31.591Z,58.90
2018-06-02T11:58:59.475Z,58.30
2018-06-02T12:01:27.281Z,58.60
2018-06-02T12:03:55.050Z,57.50
2018-06-02T12:06:22.828Z,60.60
2018-06-02T12:08:50.561Z,55.20
2018-06-02T12:11:18.354Z,54.70
2018-06-02T12:13:46.194Z,52.20
2018-06-02T12:16:14.025Z,56.60
2018-06-02T12:18:41.793Z,54.00
2018-06-02T12:21:09.638Z,49.10
2018-06-02T12:23:38.190Z,52.30
2018-06-02T12:26:05.900Z,52.20
2018-06-02T12:28:34.252Z,52.90
2018-06-02T12:31:03.211Z,52.90
2018-06-02T12:33:31.028Z,51.40
2018-06-02T12:35:58.865Z,53.90
2018-06-02T12:38:26.633Z,50.90
2018-06-02T12:40:54.427Z,51.40
2018-06-02T12:43:22.161Z,50.30
2018-06-02T12:45:49.925Z,48.40
2018-06-02T12:48:17.738Z,50.40
2018-06-02T12:50:45.553Z,49.50
2018-06-02T12:53:13.305Z,54.50
2018-06-02T12:55:41.029Z,56.70
2018-06-02T12:58:08.840Z,58.90
2018-06-02T13:00:37.232Z,56.00
2018-06-02T13:03:05.015Z,53.30
2018-06-02T13:05:33.484Z,51.10
2018-06-02T13:08:01.277Z,51.10
2018-06-02T13:10:29.088Z,52.10
2018-06-02T13:12:56.822Z,49.70
2018-06-02T13:15:24.538Z,50.70
2018-06-02T13:17:53.063Z,48.40
2018-06-02T13:20:20.831Z,48.30
2018-06-02T13:22:48.610Z,50.80
2018-06-02T13:25:16.343Z,49.80
2018-06-02T13:27:44.098Z,52.00
2018-06-02T13:30:11.882Z,48.50
2018-06-02T13:32:39.618Z,51.80
2018-06-02T13:35:07.420Z,48.20
2018-06-02T13:37:35.134Z,53.50
2018-06-02T13:40:02.995Z,50.50
2018-06-02T13:42:30.725Z,54.20
2018-06-02T13:44:58.420Z,52.20
2018-06-02T13:47:26.171Z,56.70
2018-06-02T13:49:53.856Z,49.90
2018-06-02T13:52:22.688Z,55.00
2018-06-02T13:54:50.387Z,55.60
2018-06-02T13:57:18.140Z,54.10
2018-06-02T13:59:45.929Z,50.50
2018-06-02T14:02:13.689Z,45.00
2018-06-02T14:04:42.209Z,50.00
2018-06-02T14:07:10.019Z,50.00
2018-06-02T14:09:38.642Z,53.60
2018-06-02T14:12:07.113Z,50.10
2018-06-02T14:14:35.620Z,50.00
2018-06-02T14:17:03.340Z,50.00
2018-06-02T14:19:31.097Z,51.30
2018-06-02T14:21:58.833Z,48.70
2018-06-02T14:24:26.591Z,48.30
2018-06-02T14:26:54.322Z,51.40
2018-06-02T14:29:22.906Z,49.20
2018-06-02T14:31:50.666Z,49.10
2018-06-02T14:34:19.164Z,47.60
2018-06-02T14:36:47.021Z,48.20
2018-06-02T14:39:15.538Z,42.60
2018-06-02T14:41:43.289Z,42.60
2018-06-02T14:44:11.021Z,45.00
2018-06-02T14:46:39.518Z,45.00
2018-06-02T14:49:07.251Z,45.00
2018-06-02T14:51:35.020Z,45.90
2018-06-02T14:54:02.756Z,44.40
2018-06-02T14:56:30.503Z,47.40
2018-06-02T14:58:59.017Z,48.10
2018-06-02T15:01:26.791Z,48.10
2018-06-02T15:03:54.544Z,43.80
2018-06-02T15:06:23.786Z,41.60
2018-06-02T15:08:51.519Z,41.60
2018-06-02T15:11:20.169Z,40.50
2018-06-02T15:13:47.904Z,40.50
2018-06-02T15:16:15.670Z,42.50
2018-06-02T15:18:43.377Z,41.10
2018-06-02T15:21:11.099Z,38.00
2018-06-02T15:23:38.826Z,41.60
2018-06-02T15:26:06.666Z,45.70
2018-06-02T15:28:34.400Z,49.00
2018-06-02T15:31:02.173Z,46.90
2018-06-02T15:33:29.904Z,46.20
2018-06-02T15:35:57.627Z,46.40
2018-06-02T15:38:25.766Z,47.40
2018-06-02T15:40:53.533Z,46.80
2018-06-02T15:43:21.349Z,49.10
2018-06-02T15:45:49.186Z,49.30
2018-06-02T15:48:16.982Z,48.50
2018-06-02T15:50:45.621Z,43.40
2018-06-02T15:53:13.344Z,42.70
2018-06-02T15:55:41.854Z,46.70
2018-06-02T15:58:09.690Z,46.60
2018-06-02T16:00:38.625Z,46.50
2018-06-02T16:03:06.381Z,46.40
2018-06-02T16:05:34.247Z,44.50
2018-06-02T16:08:01.985Z,43.10
2018-06-02T16:10:29.812Z,42.30
2018-06-02T16:12:57.597Z,43.50
2018-06-02T16:15:25.386Z,41.80
2018-06-02T16:17:53.158Z,43.20
2018-06-02T16:20:21.001Z,41.90
2018-06-02T16:22:49.503Z,40.50
2018-06-02T16:25:17.221Z,40.50
2018-06-02T16:27:45.025Z,44.80
2018-06-02T16:30:12.885Z,42.90
2018-06-02T16:32:41.734Z,49.40
2018-06-02T16:35:09.505Z,49.30
2018-06-02T16:37:37.286Z,51.30
2018-06-02T16:40:05.369Z,49.30
2018-06-02T16:42:33.155Z,50.60
2018-06-02T16:45:01.057Z,48.50
2018-06-02T16:47:29.016Z,53.60
2018-06-02T16:49:56.753Z,53.80
2018-06-02T16:52:24.490Z,54.20
2018-06-02T16:54:52.260Z,55.80
2018-06-02T16:57:20.797Z,56.20
2018-06-02T16:59:48.544Z,56.10
2018-06-02T17:02:16.244Z,55.70
2018-06-02T17:04:44.408Z,57.30
2018-06-02T17:07:12.120Z,54.10
2018-06-02T17:09:39.832Z,56.60
2018-06-02T17:12:07.569Z,59.30
2018-06-02T17:14:35.333Z,57.40
2018-06-02T17:17:03.056Z,59.20
2018-06-02T17:19:30.884Z,61.80
2018-06-02T17:21:59.444Z,65.20
2018-06-02T17:24:27.485Z,60.50
2018-06-02T17:26:55.644Z,59.80
2018-06-02T17:29:23.712Z,61.00
2018-06-02T17:31:51.457Z,60.30
2018-06-02T17:34:19.248Z,59.30
2018-06-02T17:36:47.261Z,59.60
2018-06-02T17:39:14.977Z,60.70
2018-06-02T17:41:42.848Z,64.30
2018-06-02T17:44:10.541Z,62.70
2018-06-02T17:46:38.252Z,61.90
2018-06-02T17:49:06.167Z,63.40
2018-06-02T17:51:33.952Z,63.60
2018-06-02T17:54:01.697Z,64.80
2018-06-02T17:56:30.253Z,66.20
2018-06-02T17:58:58.017Z,66.90
2018-06-02T18:01:25.696Z,64.60
2018-06-02T18:03:54.244Z,64.20
2018-06-02T18:06:21.959Z,64.20
2018-06-02T18:08:49.844Z,64.30
2018-06-02T18:11:17.657Z,65.10
2018-06-02T18:13:45.389Z,64.70
2018-06-02T18:16:13.117Z,65.20
2018-06-02T18:18:40.853Z,65.20
2018-06-02T18:21:08.629Z,67.80
2018-06-02T18:23:37.515Z,67.10
2018-06-02T18:26:06.055Z,68.10
2018-06-02T18:28:33.856Z,68.00
2018-06-02T18:31:02.361Z,68.10
2018-06-02T18:33:30.141Z,68.10
2018-06-02T18:35:57.864Z,68.60
2018-06-02T18:38:25.553Z,69.20
2018-06-02T18:40:53.388Z,69.80
2018-06-02T18:43:21.093Z,70.30
2018-06-02T18:45:48.813Z,71.20
2018-06-02T18:48:16.544Z,71.10
2018-06-02T18:50:44.293Z,72.80
2018-06-02T18:53:12.017Z,72.90
2018-06-02T18:55:40.761Z,74.50
2018-06-02T18:58:08.481Z,74.50
2018-06-02T19:00:36.245Z,75.30
2018-06-02T19:03:03.968Z,75.40
2018-06-02T19:05:31.665Z,75.90
2018-06-02T19:08:00.162Z,76.90
2018-06-02T19:10:28.025Z,76.90
2018-06-02T19:12:55.915Z,76.60
2018-06-02T19:15:23.611Z,79.00
2018-06-02T19:17:51.394Z,76.80
2018-06-02T19:20:19.885Z,80.40
2018-06-02T19:22:48.336Z,76.70
2018-06-02T19:25:16.029Z,76.60
2018-06-02T19:27:44.525Z,76.70
2018-06-02T19:30:12.267Z,76.70
2018-06-02T19:32:40.745Z,78.80
2018-06-02T19:35:08.485Z,78.70
2018-06-02T19:37:36.172Z,80.30
2018-06-02T19:40:04.042Z,80.20
2018-06-02T19:42:32.518Z,78.70
2018-06-02T19:45:00.536Z,78.60
2018-06-02T19:47:28.319Z,77.30
2018-06-02T19:49:55.993Z,78.00
2018-06-02T19:52:23.704Z,81.10
2018-06-02T19:54:51.413Z,79.00
2018-06-02T19:57:19.115Z,80.40
2018-06-02T19:59:47.680Z,82.30
2018-06-02T20:02:15.361Z,82.20
2018-06-02T20:04:43.804Z,80.70
2018-06-02T20:07:11.468Z,80.60
2018-06-02T20:09:39.153Z,79.70
2018-06-02T20:12:06.830Z,78.50
2018-06-02T20:14:35.273Z,80.20
2018-06-02T20:17:02.964Z,80.20
2018-06-02T20:19:31.420Z,81.10
2018-06-02T20:21:59.113Z,81.10
2018-06-02T20:24:26.832Z,80.90
2018-06-02T20:26:54.518Z,83.30
2018-06-02T20:29:22.207Z,82.90
2018-06-02T20:31:50.752Z,81.60
2018-06-02T20:34:18.457Z,81.50
2018-06-02T20:36:46.172Z,81.50
2018-06-02T20:39:13.873Z,80.30
2018-06-02T20:41:42.321Z,80.10
2018-06-02T20:44:10.001Z,80.00
2018-06-02T20:46:37.681Z,81.40
2018-06-02T20:49:06.144Z,79.20
2018-06-02T20:51:33.825Z,79.20
2018-06-02T20:54:02.265Z,78.50
2018-06-02T20:56:29.951Z,78.60
2018-06-02T20:58:57.629Z,77.50
2018-06-02T21:01:26.072Z,81.10
2018-06-02T21:03:53.771Z,81.10
2018-06-02T21:06:22.216Z,78.90
2018-06-02T21:08:49.947Z,78.80
2018-06-02T21:11:17.665Z,82.30
2018-06-02T21:13:45.421Z,79.60
2018-06-02T21:16:13.090Z,76.90
2018-06-02T21:18:40.760Z,74.00
2018-06-02T21:21:09.256Z,77.60
2018-06-02T21:23:36.952Z,77.50
2018-06-02T21:26:04.678Z,78.00
2018-06-02T21:28:33.120Z,75.90
2018-06-02T21:31:00.800Z,75.80
2018-06-02T21:33:28.736Z,74.30
2018-06-02T21:35:56.309Z,77.10
2018-06-02T21:38:23.992Z,77.80
2018-06-02T21:40:51.670Z,78.70
2018-06-02T21:43:20.116Z,80.70
2018-06-02T21:45:47.800Z,80.60
2018-06-02T21:48:15.477Z,81.70
2018-06-02T21:50:43.942Z,81.10
2018-06-02T21:53:12.057Z,81.10
2018-06-02T21:55:39.745Z,80.30
2018-06-02T21:58:07.417Z,80.90
2018-06-02T22:00:36.507Z,81.70
2018-06-02T22:03:04.175Z,82.30
2018-06-02T22:05:31.965Z,85.80
2018-06-02T22:07:59.701Z,85.90
2018-06-02T22:10:27.473Z,85.00
2018-06-02T22:12:55.233Z,84.80
2018-06-02T22:15:22.961Z,85.20
2018-06-02T22:17:50.657Z,84.90
2018-06-02T22:20:18.345Z,85.30
2018-06-02T22:22:46.024Z,85.60
2018-06-02T22:25:14.813Z,86.00
2018-06-02T22:27:43.249Z,84.50
2018-06-02T22:30:10.939Z,84.50
2018-06-02T22:32:38.615Z,85.10
2018-06-02T22:35:07.061Z,83.90
2018-06-02T22:37:34.740Z,83.80
2018-06-02T22:40:02.504Z,86.20
2018-06-02T22:42:30.177Z,86.40
2018-06-02T22:44:58.624Z,87.20
2018-06-02T22:47:26.292Z,87.10
2018-06-02T22:49:54.996Z,84.70
2018-06-02T22:52:22.770Z,85.60
2018-06-02T22:54:51.256Z,84.30
2018-06-02T22:57:19.976Z,83.20
2018-06-02T22:59:47.692Z,83.10
2018-06-02T23:02:15.461Z,86.80
2018-06-02T23:04:43.221Z,87.40
2018-06-02T23:07:10.981Z,88.30
2018-06-02T23:09:38.692Z,88.20
2018-06-02T23:12:06.513Z,89.30
2018-06-02T23:14:34.193Z,88.40
2018-06-02T23:17:02.633Z,88.40
2018-06-02T23:19:30.301Z,88.40
2018-06-02T23:21:57.979Z,87.90
2018-06-02T23:24:25.666Z,89.10
2018-06-02T23:26:54.105Z,90.20
2018-06-02T23:29:21.788Z,90.20
2018-06-02T23:31:49.466Z,90.70
2018-06-02T23:34:17.905Z,90.70
2018-06-02T23:36:45.584Z,90.70
2018-06-02T23:39:13.270Z,90.80
2018-06-02T23:41:41.029Z,91.20
2018-06-02T23:44:09.573Z,91.10
2018-06-02T23:46:37.240Z,91.10
2018-06-02T23:49:04.927Z,90.80
2018-06-02T23:51:32.697Z,90.70
2018-06-02T23:54:01.145Z,91.60
2018-06-02T23:56:28.804Z,91.60
2018-06-02T23:58:56.482Z,92.30
